Time;durP1;ratioP1;P1;durP2;ratioP2;P2;SDS_P1;SDS_P2;PMS_P1;PMS_P2;Temp;Humidity;BMP_temperature;BMP_pressure;BME280_temperature;BME280_humidity;BME280_pressure;Samples;Min_cycle;Max_cycle;Signal;HPM_P1;HPM_P2
2023/05/17 04:22:33;;;;;;;1.77;1.15;;;;;;;6.46;100.00;100897.88;5089658;28;20328;-68
2023/05/17 04:24:59;;;;;;;3.20;1.52;;;;;;;6.51;100.00;100900.94;5105079;28;20063;-68
2023/05/17 04:27:26;;;;;;;1.80;1.05;;;;;;;6.52;100.00;100900.84;5087853;28;20038;-68
2023/05/17 04:29:51;;;;;;;3.78;1.75;;;;;;;6.59;100.00;100895.00;5088294;28;20119;-68
2023/05/17 04:32:17;;;;;;;1.77;1.52;;;;;;;6.63;100.00;100902.53;5088318;28;20028;-68
2023/05/17 04:34:43;;;;;;;1.58;1.42;;;;;;;6.65;100.00;100900.63;5087969;28;20036;-68
2023/05/17 04:37:09;;;;;;;1.90;1.58;;;;;;;6.63;100.00;100897.25;5087575;28;20067;-67
2023/05/17 04:39:35;;;;;;;3.45;1.40;;;;;;;6.68;100.00;100902.16;5088143;28;20435;-68
2023/05/17 04:42:02;;;;;;;1.58;1.42;;;;;;;6.72;100.00;100907.06;5071071;28;20131;-67
2023/05/17 04:44:28;;;;;;;2.95;1.50;;;;;;;6.73;100.00;100918.50;5087894;28;20066;-68
2023/05/17 04:46:54;;;;;;;1.67;1.15;;;;;;;6.70;100.00;100910.78;5088107;28;20105;-68
2023/05/17 04:49:19;;;;;;;1.40;1.30;;;;;;;6.73;100.00;100919.31;5087738;28;20036;-68
2023/05/17 04:51:45;;;;;;;2.30;1.20;;;;;;;6.82;100.00;100917.69;5087831;28;20062;-68
2023/05/17 04:54:11;;;;;;;4.47;2.70;;;;;;;6.88;100.00;100926.91;5088952;28;20073;-68
2023/05/17 04:56:37;;;;;;;2.70;1.42;;;;;;;6.91;100.00;100927.50;5090665;28;20451;-68
2023/05/17 04:59:06;;;;;;;6.90;3.30;;;;;;;6.97;100.00;100926.94;5086846;28;20515;-68
2023/05/17 05:01:34;;;;;;;3.35;1.65;;;;;;;7.04;100.00;100927.25;5087533;28;20032;-68
2023/05/17 05:04:05;;;;;;;1.45;1.35;;;;;;;7.12;100.00;100929.25;5087734;28;20040;-65
2023/05/17 05:06:32;;;;;;;2.13;1.45;;;;;;;7.21;100.00;100942.50;5087400;28;20040;-66
2023/05/17 05:09:02;;;;;;;2.40;1.25;;;;;;;7.26;100.00;100937.66;5087092;28;20041;-64
2023/05/17 05:11:28;;;;;;;1.73;1.48;;;;;;;7.33;100.00;100945.91;5087226;28;20028;-65
2023/05/17 05:13:54;;;;;;;2.88;1.52;;;;;;;7.42;100.00;100934.47;5088807;28;20511;-66
2023/05/17 05:16:20;;;;;;;2.17;1.23;;;;;;;7.48;100.00;100941.03;5088405;28;20032;-66
2023/05/17 05:18:45;;;;;;;3.95;1.40;;;;;;;7.51;100.00;100941.63;5088240;28;20401;-66
2023/05/17 05:21:11;;;;;;;2.80;1.40;;;;;;;7.62;100.00;100944.13;5088289;28;20036;-64
2023/05/17 05:23:37;;;;;;;2.55;1.60;;;;;;;7.70;100.00;100946.13;5087088;28;20045;-64
2023/05/17 05:26:03;;;;;;;4.93;1.75;;;;;;;7.72;100.00;100951.28;5086895;28;20443;-65
2023/05/17 05:28:29;;;;;;;3.47;1.70;;;;;;;7.83;100.00;100959.97;5086644;28;20044;-66
2023/05/17 05:30:59;;;;;;;2.70;1.77;;;;;;;7.94;100.00;100956.31;5086985;28;20043;-65
2023/05/17 05:33:27;;;;;;;2.70;1.77;;;;;;;8.04;100.00;100965.13;5075909;28;20526;-65
2023/05/17 05:35:55;;;;;;;1.67;1.30;;;;;;;8.18;100.00;100968.34;5073272;28;20040;-65
2023/05/17 05:38:21;;;;;;;2.25;1.63;;;;;;;8.26;100.00;100968.47;5074294;28;20400;-66
2023/05/17 05:40:47;;;;;;;4.18;1.67;;;;;;;8.31;100.00;100972.38;5074400;28;20059;-66
2023/05/17 05:43:13;;;;;;;3.42;1.58;;;;;;;8.36;99.60;100972.84;5073485;28;20028;-65
2023/05/17 05:45:45;;;;;;;1.63;1.48;;;;;;;8.41;98.87;100973.25;5073183;28;20037;-65
2023/05/17 05:48:12;;;;;;;2.65;1.52;;;;;;;8.48;97.20;100978.84;5072837;28;20040;-66
2023/05/17 05:50:37;;;;;;;1.80;1.20;;;;;;;8.55;96.94;100973.81;5073081;28;20041;-67
2023/05/17 05:53:09;;;;;;;3.00;1.50;;;;;;;8.58;95.84;100974.34;5073112;28;20036;-67
2023/05/17 05:55:35;;;;;;;2.93;1.57;;;;;;;8.66;95.42;100981.59;5073192;28;20043;-67
2023/05/17 05:58:00;;;;;;;2.55;1.40;;;;;;;8.66;94.28;100981.59;5072412;28;20632;-64
2023/05/17 06:00:26;;;;;;;4.03;1.42;;;;;;;8.74;95.88;100988.84;5072972;28;20033;-64
2023/05/17 06:02:52;;;;;;;3.08;1.17;;;;;;;8.78;95.02;100983.09;5074118;28;20048;-65
2023/05/17 06:05:18;;;;;;;1.95;1.60;;;;;;;8.91;93.71;100991.59;5074007;28;20059;-64
2023/05/17 06:07:43;;;;;;;1.60;1.30;;;;;;;9.00;93.88;100992.56;5073701;28;20492;-64
2023/05/17 06:10:09;;;;;;;4.63;1.40;;;;;;;9.08;92.56;100999.81;5074035;28;20473;-64
2023/05/17 06:12:34;;;;;;;1.80;1.42;;;;;;;9.13;91.43;100998.41;5074154;28;20052;-64
2023/05/17 06:15:00;;;;;;;1.63;1.40;;;;;;;9.23;92.66;100999.19;5073976;28;20044;-65
2023/05/17 06:17:25;;;;;;;1.67;0.98;;;;;;;9.36;90.80;101012.13;5073480;28;20036;-65
2023/05/17 06:19:51;;;;;;;4.22;1.63;;;;;;;9.36;89.72;101008.63;5073858;28;20098;-64
2023/05/17 06:22:17;;;;;;;1.65;1.42;;;;;;;9.48;90.93;101012.78;5073590;28;20397;-64
2023/05/17 06:24:42;;;;;;;3.10;1.55;;;;;;;9.61;90.21;101004.47;5073677;28;20043;-64
2023/05/17 06:27:07;;;;;;;2.33;1.30;;;;;;;9.60;89.93;101003.63;5072069;28;20069;-67
2023/05/17 06:29:33;;;;;;;1.83;1.40;;;;;;;9.69;89.23;101010.72;5073617;28;20033;-64
2023/05/17 06:31:58;;;;;;;3.88;1.75;;;;;;;9.76;90.64;101008.28;5073620;28;20075;-66
2023/05/17 06:34:24;;;;;;;1.88;1.33;;;;;;;9.81;87.68;101010.50;5073562;28;20055;-66
2023/05/17 06:36:50;;;;;;;2.40;1.38;;;;;;;9.87;87.97;101005.41;5073169;28;20036;-66
2023/05/17 06:39:16;;;;;;;2.90;2.38;;;;;;;9.87;86.17;101005.41;5073512;28;20089;-65
2023/05/17 06:41:41;;;;;;;2.72;1.50;;;;;;;9.93;85.43;101015.47;5072079;28;20043;-66
2023/05/17 06:44:07;;;;;;;2.42;1.27;;;;;;;9.98;84.84;101009.69;5072362;28;20393;-65
2023/05/17 06:46:32;;;;;;;2.03;1.15;;;;;;;9.89;85.50;101014.09;5073255;28;20485;-66
2023/05/17 06:48:57;;;;;;;1.70;1.10;;;;;;;10.00;86.92;101010.38;5073004;28;20043;-65
2023/05/17 06:51:23;;;;;;;3.67;1.48;;;;;;;10.05;86.42;101011.59;5073152;28;20036;-65
2023/05/17 06:53:49;;;;;;;3.22;1.50;;;;;;;10.19;84.58;101020.06;5073160;28;20039;-66
2023/05/17 06:56:15;;;;;;;2.40;1.58;;;;;;;10.13;84.39;101021.50;5073040;28;20405;-67
2023/05/17 06:58:40;;;;;;;2.13;1.40;;;;;;;10.20;84.43;101019.06;5072780;28;20433;-61
2023/05/17 07:01:05;;;;;;;3.20;1.30;;;;;;;10.21;84.63;101015.41;5073106;28;20043;-66
2023/05/17 07:03:31;;;;;;;2.47;1.45;;;;;;;10.24;82.53;101017.81;5071647;28;20044;-64
2023/05/17 07:05:56;;;;;;;2.95;1.63;;;;;;;10.35;83.21;101024.72;5072898;28;20028;-68
2023/05/17 07:08:22;;;;;;;1.67;1.23;;;;;;;10.32;82.76;101021.38;5072624;28;20083;-64
2023/05/17 07:10:50;;;;;;;1.98;1.30;;;;;;;10.41;83.33;101029.44;5072753;28;20063;-64
2023/05/17 07:13:16;;;;;;;2.55;1.50;;;;;;;10.49;82.30;101033.00;5072725;28;20045;-64
2023/05/17 07:15:41;;;;;;;1.70;1.30;;;;;;;10.65;82.60;101026.13;5072782;28;20052;-67
2023/05/17 07:18:07;;;;;;;3.65;1.48;;;;;;;10.80;79.21;101029.91;5072420;28;20036;-65
2023/05/17 07:20:32;;;;;;;3.17;1.60;;;;;;;10.87;78.50;101030.94;5054717;28;20036;-64
2023/05/17 07:22:58;;;;;;;3.65;1.40;;;;;;;10.81;77.72;101031.56;5064025;28;20178;-63
2023/05/17 07:25:23;;;;;;;3.53;1.30;;;;;;;10.89;77.97;101034.31;5052586;28;20500;-65
2023/05/17 07:27:48;;;;;;;1.58;1.10;;;;;;;10.79;77.26;101029.06;5063025;28;20044;-63
2023/05/17 07:30:14;;;;;;;1.85;1.20;;;;;;;10.72;78.46;101028.03;5072441;28;20086;-64
2023/05/17 07:32:39;;;;;;;2.88;1.58;;;;;;;10.87;77.58;101030.94;5069636;28;20066;-65
2023/05/17 07:35:05;;;;;;;2.70;1.55;;;;;;;10.80;77.00;101032.56;5072289;28;20055;-63
2023/05/17 07:37:30;;;;;;;2.83;1.60;;;;;;;10.91;77.38;101035.00;5071492;28;20044;-66
2023/05/17 07:39:56;;;;;;;2.10;1.15;;;;;;;11.00;77.11;101034.03;5072267;28;20032;-64
2023/05/17 07:42:22;;;;;;;2.35;1.40;;;;;;;11.11;76.71;101035.63;5072255;28;20040;-65
2023/05/17 07:44:48;;;;;;;1.75;1.30;;;;;;;11.07;75.75;101027.09;5072252;28;20041;-65
2023/05/17 07:47:14;;;;;;;1.85;1.20;;;;;;;11.27;74.83;101041.03;5071328;28;20041;-66
2023/05/17 07:49:40;;;;;;;1.75;1.05;;;;;;;11.29;72.64;101040.91;5072073;28;20036;-67
2023/05/17 07:52:06;;;;;;;2.53;1.20;;;;;;;11.45;71.71;101035.63;5072064;28;20051;-66
2023/05/17 07:54:32;;;;;;;4.53;1.15;;;;;;;11.58;69.14;101038.69;5072037;28;20113;-65
2023/05/17 07:56:58;;;;;;;2.47;1.20;;;;;;;11.68;68.57;101036.75;5068581;28;20078;-66
2023/05/17 07:59:24;;;;;;;1.48;0.98;;;;;;;11.69;67.40;101030.41;5071791;28;20696;-63
2023/05/17 08:01:50;;;;;;;1.67;1.00;;;;;;;11.86;67.10;101033.97;5072099;28;20117;-67
2023/05/17 08:04:16;;;;;;;2.78;1.38;;;;;;;11.95;66.04;101033.00;5072023;28;20516;-67
2023/05/17 08:06:42;;;;;;;2.65;1.48;;;;;;;12.01;66.85;101031.53;5071762;28;20039;-68
2023/05/17 08:09:07;;;;;;;2.67;1.20;;;;;;;11.91;65.37;101033.50;5071346;28;20119;-67
2023/05/17 08:11:33;;;;;;;2.25;1.20;;;;;;;11.86;65.76;101035.81;5070573;28;20466;-67
2023/05/17 08:14:02;;;;;;;2.80;1.70;;;;;;;12.02;65.54;101032.34;5071875;28;20048;-66
2023/05/17 08:16:27;;;;;;;4.43;1.75;;;;;;;12.13;65.46;101030.22;5071761;28;20442;-65
2023/05/17 08:18:52;;;;;;;3.67;2.15;;;;;;;12.04;65.72;101031.19;5071289;28;20125;-67
2023/05/17 08:21:18;;;;;;;2.00;1.25;;;;;;;12.07;65.69;101035.38;5071655;28;20186;-66
2023/05/17 08:23:43;;;;;;;2.45;1.40;;;;;;;11.97;65.01;101030.16;5071765;28;20170;-66
2023/05/17 08:26:09;;;;;;;2.33;1.20;;;;;;;11.75;64.64;101030.75;5071682;28;20051;-67
2023/05/17 08:28:34;;;;;;;2.35;1.17;;;;;;;11.99;64.81;101033.50;5071016;28;20040;-65
2023/05/17 08:31:00;;;;;;;2.75;1.20;;;;;;;12.10;65.78;101024.34;5071675;28;20519;-66
2023/05/17 08:33:26;;;;;;;3.22;1.35;;;;;;;12.14;66.41;101020.38;5071710;28;20561;-66
2023/05/17 08:35:54;;;;;;;1.58;1.20;;;;;;;12.02;63.73;101030.53;5071574;28;20076;-66
2023/05/17 08:38:19;;;;;;;;;;;;;;;12.01;63.71;101025.34;5071265;28;20039;-66
2023/05/17 08:40:55;;;;;;;1.95;1.10;;;;;;;12.01;63.97;101028.03;5071661;28;19921;-65
2023/05/17 08:43:21;;;;;;;1.58;1.20;;;;;;;12.07;64.59;101019.34;5071688;28;20474;-65
2023/05/17 08:45:49;;;;;;;3.83;1.45;;;;;;;12.13;64.38;101018.69;5071554;28;20025;-65
2023/05/17 08:48:16;;;;;;;3.85;1.10;;;;;;;12.21;64.55;101016.88;5070758;28;20040;-66
2023/05/17 08:50:43;;;;;;;2.42;1.55;;;;;;;12.18;63.29;101019.03;5071535;28;20185;-67
2023/05/17 08:53:09;;;;;;;1.63;1.10;;;;;;;12.26;62.84;101012.84;5071469;28;20040;-66
2023/05/17 08:55:36;;;;;;;3.50;1.45;;;;;;;12.34;61.79;101005.69;5071423;28;20185;-64
2023/05/17 08:58:04;;;;;;;2.50;1.50;;;;;;;12.67;60.27;101014.53;5070763;28;20036;-64
2023/05/17 09:00:32;;;;;;;;;;;;;;;12.90;57.99;101000.47;5071808;28;20579;-59
2023/05/17 09:02:59;;;;;;;3.20;1.25;;;;;;;13.38;57.66;100996.03;5071370;28;19916;-61
2023/05/17 09:05:25;;;;;;;2.45;1.67;;;;;;;13.61;56.76;101004.94;5071388;28;20508;-60
2023/05/17 09:07:52;;;;;;;2.22;1.30;;;;;;;13.83;54.21;100981.94;5071854;28;20037;-59
2023/05/17 09:10:18;;;;;;;5.03;1.63;;;;;;;14.21;53.33;101001.56;5075035;28;20508;-64
2023/05/17 09:12:44;;;;;;;1.35;1.25;;;;;;;14.37;53.14;100993.41;5075155;28;20055;-63
2023/05/17 09:15:17;;;;;;;4.20;2.10;;;;;;;14.50;52.53;101000.88;5074930;28;20123;-60
2023/05/17 09:17:52;;;;;;;3.40;1.25;;;;;;;14.75;51.57;100998.81;5074274;28;20490;-61
2023/05/17 09:20:32;;;;;;;3.75;1.30;;;;;;;14.89;51.47;101000.69;5075051;28;20515;-61
2023/05/17 09:22:59;;;;;;;1.70;1.10;;;;;;;14.60;51.74;101005.97;5075239;28;20059;-60
2023/05/17 09:25:24;;;;;;;2.55;1.33;;;;;;;14.53;51.79;100994.31;5074774;28;20041;-63
2023/05/17 09:27:54;;;;;;;2.83;1.60;;;;;;;14.53;52.53;101007.72;5073987;28;20082;-60
2023/05/17 09:30:26;;;;;;;2.70;1.55;;;;;;;14.64;51.34;101007.28;5074467;28;20066;-62
2023/05/17 09:32:52;;;;;;;3.38;1.42;;;;;;;14.50;51.72;101011.59;5074761;28;20076;-61
2023/05/17 09:35:18;;;;;;;3.08;1.45;;;;;;;14.16;52.82;100997.78;5074613;28;20119;-63
2023/05/17 09:37:45;;;;;;;1.95;1.40;;;;;;;14.29;52.31;101009.56;5073818;28;20104;-64
2023/05/17 09:40:22;;;;;;;4.10;1.55;;;;;;;14.26;51.65;101009.91;5074618;28;20482;-63
2023/05/17 09:42:48;;;;;;;3.15;1.50;;;;;;;14.18;51.53;101015.34;5074496;28;20068;-61
2023/05/17 09:45:20;;;;;;;2.45;1.50;;;;;;;14.01;53.04;101011.09;5074417;28;20059;-63
2023/05/17 09:47:46;;;;;;;2.03;1.27;;;;;;;14.08;53.86;101012.03;5073755;28;20040;-63
2023/05/17 09:50:17;;;;;;;2.22;1.30;;;;;;;14.05;53.86;101017.78;5074508;28;20040;-62
2023/05/17 09:52:43;;;;;;;2.63;1.42;;;;;;;13.91;54.35;101008.66;5074762;28;20044;-63
2023/05/17 09:55:10;;;;;;;4.35;1.25;;;;;;;14.02;54.59;101018.13;5074309;28;20029;-63
2023/05/17 09:57:38;;;;;;;3.67;1.48;;;;;;;14.12;54.32;101013.38;5073553;28;20048;-62
2023/05/17 10:00:08;;;;;;;2.00;1.20;;;;;;;13.99;54.08;101016.63;5074510;28;20393;-63
2023/05/17 10:02:36;;;;;;;1.67;1.13;;;;;;;13.95;52.90;101025.19;5074420;28;20048;-63
2023/05/17 10:05:04;;;;;;;1.77;1.25;;;;;;;13.81;54.06;101014.22;5074253;28;20032;-62
2023/05/17 10:07:30;;;;;;;2.03;1.23;;;;;;;14.02;53.72;101012.78;5073734;28;20536;-63
2023/05/17 10:09:57;;;;;;;2.40;1.35;;;;;;;14.14;54.92;101016.69;5074036;28;20033;-63
2023/05/17 10:12:26;;;;;;;1.85;1.23;;;;;;;14.08;54.01;101017.41;5073978;28;20032;-63
2023/05/17 10:14:54;;;;;;;1.55;1.10;;;;;;;13.95;54.57;101017.97;5074058;28;20521;-63
2023/05/17 10:17:20;;;;;;;2.58;1.13;;;;;;;14.03;55.22;101014.44;5073573;28;20072;-65
2023/05/17 10:19:46;;;;;;;2.22;1.17;;;;;;;14.26;54.45;101009.06;5073679;28;20044;-64
2023/05/17 10:22:12;;;;;;;2.85;1.05;;;;;;;14.45;53.74;101018.50;5074005;28;20048;-64
2023/05/17 10:24:39;;;;;;;1.95;0.93;;;;;;;14.49;52.66;101017.16;5073941;28;20067;-61
2023/05/17 10:27:06;;;;;;;1.60;1.00;;;;;;;14.30;52.47;101013.09;5073514;28;20112;-63
2023/05/17 10:29:32;;;;;;;3.10;0.98;;;;;;;14.31;54.01;101012.91;5073712;28;20413;-63
2023/05/17 10:31:57;;;;;;;1.23;0.90;;;;;;;14.04;52.01;101016.09;5073570;28;20036;-61
2023/05/17 10:34:26;;;;;;;1.40;0.90;;;;;;;13.90;52.96;101008.84;5073515;28;20054;-61
2023/05/17 10:36:52;;;;;;;2.20;1.17;;;;;;;14.00;52.77;101012.09;5073359;28;20036;-60
2023/05/17 10:39:20;;;;;;;1.25;0.75;;;;;;;14.23;51.98;101018.31;5073360;28;20056;-62
2023/05/17 10:41:51;;;;;;;1.52;1.30;;;;;;;14.27;51.96;101016.09;5073493;28;20039;-61
2023/05/17 10:44:17;;;;;;;1.35;1.10;;;;;;;14.29;52.00;101014.09;5073520;28;20040;-64
2023/05/17 10:46:54;;;;;;;1.73;1.10;;;;;;;13.96;53.35;101014.31;5073206;28;20064;-65
2023/05/17 10:49:19;;;;;;;2.90;1.15;;;;;;;14.12;54.29;101024.09;5073051;28;20051;-64
2023/05/17 10:51:45;;;;;;;3.63;1.50;;;;;;;14.27;56.73;101011.56;5071878;28;20048;-63
2023/05/17 10:54:12;;;;;;;2.05;1.45;;;;;;;14.37;53.26;101020.22;5073325;28;20043;-61
2023/05/17 10:56:49;;;;;;;1.52;1.08;;;;;;;14.64;51.70;101023.38;5073065;28;20036;-63
2023/05/17 10:59:28;;;;;;;1.65;1.15;;;;;;;14.30;52.83;101029.16;5072989;28;20040;-63
2023/05/17 11:02:08;;;;;;;1.15;0.88;;;;;;;14.71;52.48;101023.50;5073079;28;20036;-63
2023/05/17 11:04:38;;;;;;;3.08;1.85;;;;;;;14.70;51.03;101027.19;5073068;28;20032;-64
2023/05/17 11:07:16;;;;;;;1.60;1.02;;;;;;;14.82;50.42;101026.56;5072712;28;20119;-62
2023/05/17 11:10:19;;;;;;;1.17;0.98;;;;;;;14.45;50.47;101029.22;5072947;28;20058;-64
2023/05/17 11:12:52;;;;;;;2.58;1.13;;;;;;;14.66;51.34;101024.03;5072905;28;20044;-63
2023/05/17 11:15:22;;;;;;;3.10;1.05;;;;;;;14.89;48.73;101016.78;5072727;28;20043;-63
2023/05/17 11:17:52;;;;;;;1.42;0.98;;;;;;;14.74;49.60;101013.25;5072424;28;20032;-63
2023/05/17 11:20:23;;;;;;;1.77;1.20;;;;;;;14.78;50.12;101016.38;5072508;28;20037;-64
2023/05/17 11:23:01;;;;;;;2.25;1.25;;;;;;;14.57;51.05;101019.75;5072636;28;20038;-64
2023/05/17 11:25:29;;;;;;;4.32;1.13;;;;;;;14.35;51.98;101022.25;5072595;28;20055;-63
2023/05/17 11:27:54;;;;;;;2.28;1.40;;;;;;;14.58;51.57;101016.06;5070970;28;20037;-62
2023/05/17 11:30:29;;;;;;;1.90;1.65;;;;;;;14.28;51.33;101017.75;5072070;28;20524;-64
2023/05/17 11:32:59;;;;;;;1.40;1.05;;;;;;;14.23;52.00;101012.97;5072352;28;20561;-61
2023/05/17 11:35:32;;;;;;;2.92;1.20;;;;;;;14.27;51.96;101021.47;5072321;28;20101;-63
2023/05/17 11:38:17;;;;;;;2.13;1.05;;;;;;;14.39;50.90;101015.50;5069347;28;20477;-63
2023/05/17 11:40:46;;;;;;;2.58;1.20;;;;;;;14.36;50.57;101015.03;5063133;28;20121;-62
2023/05/17 11:43:14;;;;;;;1.83;1.13;;;;;;;14.34;50.92;101011.69;5062382;28;20546;-62
2023/05/17 11:45:49;;;;;;;;;;;;;;;14.32;51.72;101013.72;5068731;28;20028;-63
2023/05/17 11:48:17;;;;;;;3.72;1.38;;;;;;;14.16;50.80;101013.84;5071879;28;19920;-62
2023/05/17 11:50:44;;;;;;;1.98;1.08;;;;;;;14.29;50.23;101003.38;5070987;28;20041;-63
2023/05/17 11:53:11;;;;;;;1.42;0.98;;;;;;;14.44;51.09;101011.47;5072213;28;20043;-62
2023/05/17 11:55:38;;;;;;;2.35;1.20;;;;;;;14.71;49.81;101008.22;5072027;28;20061;-62
2023/05/17 11:58:06;;;;;;;1.92;1.15;;;;;;;14.74;48.10;101005.22;5062812;28;20041;-61
2023/05/17 12:00:32;;;;;;;;;;;;;;;15.15;47.13;101010.16;5061422;28;20048;-62
2023/05/17 12:02:58;;;;;;;4.32;1.58;;;;;;;15.57;46.76;101006.78;5061493;28;20288;-63
2023/05/17 12:05:24;;;;;;;1.42;1.00;;;;;;;15.65;46.43;101008.59;5062440;28;20041;-63
2023/05/17 12:07:51;;;;;;;1.77;1.02;;;;;;;15.83;45.90;101011.66;5060096;28;20044;-62
2023/05/17 12:10:17;;;;;;;1.45;0.98;;;;;;;16.13;43.76;101000.84;5061386;28;20028;-64
2023/05/17 12:12:43;;;;;;;1.83;1.20;;;;;;;16.10;45.37;100999.34;5062279;28;20095;-61
2023/05/17 12:15:09;;;;;;;2.40;1.20;;;;;;;15.99;43.62;101007.94;5060128;28;20033;-61
2023/05/17 12:17:42;;;;;;;2.25;1.20;;;;;;;16.07;42.69;100998.91;5061344;28;20041;-64
2023/05/17 12:20:08;;;;;;;2.70;1.33;;;;;;;15.77;43.02;100988.25;5062081;28;20118;-64
2023/05/17 12:22:33;;;;;;;1.70;1.17;;;;;;;15.77;42.87;100995.47;5060753;28;20057;-63
2023/05/17 12:24:59;;;;;;;1.88;1.20;;;;;;;15.82;44.31;100991.22;5059741;28;20117;-62
2023/05/17 12:27:29;;;;;;;3.03;1.35;;;;;;;15.80;44.62;100992.44;5062036;28;20036;-63
2023/05/17 12:29:55;;;;;;;1.77;1.33;;;;;;;15.88;43.89;100990.44;5061058;28;20032;-63
2023/05/17 12:32:21;;;;;;;1.67;1.23;;;;;;;15.72;44.90;100994.22;5060621;28;20551;-62
2023/05/17 12:34:48;;;;;;;2.13;1.10;;;;;;;15.57;45.20;100993.34;5062138;28;20036;-63
2023/05/17 12:37:14;;;;;;;1.95;1.23;;;;;;;15.20;44.80;100988.97;5060365;28;20096;-61
2023/05/17 12:39:39;;;;;;;2.65;1.10;;;;;;;15.61;45.35;100989.28;5060741;28;20097;-60
2023/05/17 12:42:06;;;;;;;1.77;1.38;;;;;;;15.74;43.93;100985.97;5062163;28;20579;-63
2023/05/17 12:44:31;;;;;;;1.83;1.15;;;;;;;16.34;43.78;100990.09;5064409;28;20488;-63
2023/05/17 12:47:01;;;;;;;3.55;1.17;;;;;;;16.66;42.09;100977.94;5064718;28;20067;-64
2023/05/17 12:49:26;;;;;;;3.08;1.25;;;;;;;16.71;42.78;100972.03;5066181;28;20119;-63
2023/05/17 12:51:51;;;;;;;1.77;1.05;;;;;;;16.98;41.92;100981.09;5075287;28;20147;-62
2023/05/17 12:54:23;;;;;;;2.20;1.15;;;;;;;16.79;43.74;100983.44;5075388;28;20070;-63
2023/05/17 12:56:48;;;;;;;3.00;1.50;;;;;;;16.32;43.87;100983.25;5075122;28;20028;-63
2023/05/17 12:59:19;;;;;;;3.42;1.40;;;;;;;16.53;44.87;100983.22;5075159;28;20032;-63
2023/05/17 13:01:50;;;;;;;2.30;1.00;;;;;;;16.43;43.38;100982.72;5075256;28;20166;-60
2023/05/17 13:04:19;;;;;;;2.20;0.98;;;;;;;16.55;43.31;100981.16;5074015;28;20477;-62
2023/05/17 13:06:48;;;;;;;1.80;1.30;;;;;;;16.51;43.48;100972.66;5071228;28;20051;-64
2023/05/17 13:09:14;;;;;;;2.40;1.40;;;;;;;16.20;43.36;100972.19;5055144;28;20071;-63
2023/05/17 13:11:49;;;;;;;1.25;1.08;;;;;;;16.23;43.64;100963.72;5055050;28;20441;-63
2023/05/17 13:14:36;;;;;;;1.90;1.40;;;;;;;16.89;41.47;100964.28;5055018;28;20047;-64
2023/05/17 13:17:07;;;;;;;1.93;1.20;;;;;;;16.96;41.69;100967.03;5054629;28;20120;-61
2023/05/17 13:19:34;;;;;;;2.92;1.50;;;;;;;16.91;40.80;100954.16;5055063;28;20063;-62
2023/05/17 13:22:00;;;;;;;2.83;1.60;;;;;;;17.18;40.49;100957.81;5055018;28;20116;-62
2023/05/17 13:24:26;;;;;;;2.35;1.40;;;;;;;17.22;39.46;100955.56;5054906;28;20119;-61
2023/05/17 13:26:52;;;;;;;2.00;1.50;;;;;;;16.96;39.47;100958.94;5054564;28;20033;-63
2023/05/17 13:29:18;;;;;;;2.47;1.45;;;;;;;16.45;40.95;100957.31;5054477;28;20516;-64
2023/05/17 13:31:43;;;;;;;4.05;1.42;;;;;;;16.26;43.14;100955.28;5053374;28;20041;-61
2023/05/17 13:34:09;;;;;;;2.05;1.60;;;;;;;16.45;42.62;100949.25;5054708;28;20037;-64
2023/05/17 13:36:34;;;;;;;3.33;1.30;;;;;;;15.82;42.17;100960.81;5054573;28;20048;-63
2023/05/17 13:39:03;;;;;;;2.08;1.50;;;;;;;15.95;42.54;100951.06;5054230;28;20033;-63
2023/05/17 13:41:29;;;;;;;2.33;1.10;;;;;;;15.63;40.85;100946.16;5054659;28;20382;-62
2023/05/17 13:43:56;;;;;;;2.63;1.50;;;;;;;15.79;42.21;100942.41;5054405;28;20052;-61
2023/05/17 13:46:21;;;;;;;1.80;1.40;;;;;;;15.76;43.43;100943.63;5054331;28;20083;-64
2023/05/17 13:48:46;;;;;;;2.33;1.40;;;;;;;16.14;42.17;100941.53;5054179;28;20282;-62
2023/05/17 13:51:12;;;;;;;1.88;1.40;;;;;;;16.41;42.95;100931.00;5054308;28;20094;-60
2023/05/17 13:53:37;;;;;;;4.00;1.40;;;;;;;16.62;40.99;100940.88;5053866;28;20080;-64
2023/05/17 13:56:03;;;;;;;2.58;1.35;;;;;;;16.75;41.03;100932.91;5054226;28;20422;-60
2023/05/17 13:58:29;;;;;;;9.68;3.63;;;;;;;16.84;40.72;100934.44;5053942;28;20406;-62
2023/05/17 14:00:55;;;;;;;5.75;2.22;;;;;;;17.01;40.81;100938.47;5054099;28;20187;-60
2023/05/17 14:03:20;;;;;;;2.28;1.52;;;;;;;16.98;41.04;100929.97;5054171;28;20068;-58
2023/05/17 14:05:49;;;;;;;2.60;1.65;;;;;;;17.00;40.38;100941.34;5053996;28;20076;-59
2023/05/17 14:08:15;;;;;;;2.30;1.60;;;;;;;16.71;40.70;100942.44;5053678;28;20048;-62
2023/05/17 14:10:41;;;;;;;4.28;1.90;;;;;;;16.64;40.23;100941.53;5053898;28;20055;-61
2023/05/17 14:13:06;;;;;;;1.83;1.10;;;;;;;16.44;40.62;100939.50;5053829;28;20127;-61
2023/05/17 14:15:36;;;;;;;2.35;1.38;;;;;;;16.50;42.00;100941.44;5053760;28;20041;-59
2023/05/17 14:18:06;;;;;;;3.20;1.50;;;;;;;16.02;40.11;100930.44;5053501;28;20066;-64
2023/05/17 14:20:32;;;;;;;2.28;1.40;;;;;;;16.21;40.48;100937.03;5053643;28;20060;-61
2023/05/17 14:22:58;;;;;;;2.40;1.33;;;;;;;16.24;41.98;100927.78;5053798;28;20041;-62
2023/05/17 14:25:24;;;;;;;2.50;1.40;;;;;;;16.34;40.39;100922.88;5053734;28;20025;-61
2023/05/17 14:27:51;;;;;;;2.85;1.27;;;;;;;16.63;39.98;100929.09;5053384;28;20414;-63
2023/05/17 14:30:16;;;;;;;2.65;1.35;;;;;;;16.66;39.97;100926.00;5053519;28;20044;-61
2023/05/17 14:32:41;;;;;;;3.55;1.55;;;;;;;16.34;40.37;100920.19;5053601;28;20510;-61
2023/05/17 14:35:08;;;;;;;5.32;1.70;;;;;;;16.52;41.21;100925.91;5053527;28;20402;-64
2023/05/17 14:37:33;;;;;;;2.22;1.50;;;;;;;16.37;40.49;100917.13;5053159;28;20090;-62
2023/05/17 14:39:59;;;;;;;2.33;1.27;;;;;;;16.31;41.21;100919.75;5053455;28;20095;-64
2023/05/17 14:42:25;;;;;;;2.83;1.38;;;;;;;16.35;41.33;100921.84;5053372;28;20037;-63
2023/05/17 14:44:51;;;;;;;2.67;1.33;;;;;;;16.36;41.69;100917.28;5053366;28;20482;-63
2023/05/17 14:47:17;;;;;;;2.28;1.40;;;;;;;16.39;42.04;100915.06;5052913;28;20044;-63
2023/05/17 14:49:42;;;;;;;3.60;1.38;;;;;;;16.38;40.77;100910.72;5053332;28;20037;-62
2023/05/17 14:52:08;;;;;;;3.03;1.35;;;;;;;16.42;42.73;100905.75;5053181;28;20041;-63
2023/05/17 14:54:34;;;;;;;2.10;1.40;;;;;;;16.53;40.99;100903.38;5053271;28;20039;-63
2023/05/17 14:57:00;;;;;;;2.55;1.50;;;;;;;16.51;41.55;100909.97;5052791;28;20041;-62
2023/05/17 14:59:25;;;;;;;1.35;1.05;;;;;;;16.50;42.34;100906.47;5052943;28;20179;-63
2023/05/17 15:01:51;;;;;;;1.80;1.20;;;;;;;16.53;41.80;100900.69;5053010;28;20044;-60
2023/05/17 15:04:18;;;;;;;1.70;1.15;;;;;;;16.45;40.92;100916.16;5062267;28;20020;-62
2023/05/17 15:06:45;;;;;;;2.65;1.40;;;;;;;16.42;40.88;100911.97;5071278;28;20155;-60
2023/05/17 15:09:12;;;;;;;1.77;0.95;;;;;;;16.49;40.05;100912.03;5070544;28;20115;-61
2023/05/17 15:11:38;;;;;;;2.28;1.20;;;;;;;16.46;41.37;100912.44;5072509;28;20047;-62
2023/05/17 15:14:05;;;;;;;1.73;1.30;;;;;;;16.18;41.17;100904.34;5071312;28;20060;-64
2023/05/17 15:16:31;;;;;;;3.10;1.80;;;;;;;16.02;41.18;100908.94;5071568;28;20379;-63
2023/05/17 15:18:57;;;;;;;2.58;1.60;;;;;;;16.11;42.12;100909.66;5072475;28;20059;-61
2023/05/17 15:21:23;;;;;;;2.30;1.50;;;;;;;15.90;41.02;100907.81;5072463;28;20490;-61
2023/05/17 15:23:49;;;;;;;1.67;1.13;;;;;;;15.98;42.46;100905.00;5072673;28;20043;-60
2023/05/17 15:26:15;;;;;;;2.15;1.33;;;;;;;16.01;42.29;100907.28;5072444;28;20106;-61
2023/05/17 15:28:42;;;;;;;2.70;1.50;;;;;;;16.16;41.25;100914.44;5052557;28;20474;-62
2023/05/17 15:31:09;;;;;;;1.33;1.10;;;;;;;16.12;41.12;100903.25;5052476;28;20078;-62
2023/05/17 15:33:38;;;;;;;2.60;1.40;;;;;;;16.00;41.07;100902.94;5050440;28;20442;-60
2023/05/17 15:36:08;;;;;;;1.83;1.35;;;;;;;15.98;41.36;100893.44;5051993;28;20040;-60
2023/05/17 15:38:33;;;;;;;1.77;1.13;;;;;;;16.22;42.34;100897.53;5051024;28;20033;-59
2023/05/17 15:41:02;;;;;;;4.82;1.67;;;;;;;16.24;41.09;100892.81;5052262;28;20051;-63
2023/05/17 15:43:28;;;;;;;3.88;1.60;;;;;;;16.27;41.78;100892.44;5050991;28;20556;-60
2023/05/17 15:45:53;;;;;;;4.03;1.60;;;;;;;16.27;41.65;100895.13;5052226;28;20044;-62
2023/05/17 15:48:21;;;;;;;2.13;1.58;;;;;;;16.21;42.50;100890.50;5052009;28;20079;-63